sensor_id;sensor_type;location;lat;lon;timestamp;P1;durP1;ratioP1;P2;durP2;ratioP2
65477;SDS011;53678;39.642;22.430;2023-07-31T00:00:37;7.72;;;3.78;;
65477;SDS011;53678;39.642;22.430;2023-07-31T00:03:03;6.25;;;3.65;;
65477;SDS011;53678;39.642;22.430;2023-07-31T00:05:29;7.10;;;3.85;;
65477;SDS011;53678;39.642;22.430;2023-07-31T00:07:55;5.75;;;3.75;;
65477;SDS011;53678;39.642;22.430;2023-07-31T00:10:21;6.75;;;3.08;;
65477;SDS011;53678;39.642;22.430;2023-07-31T00:12:48;5.63;;;3.50;;
65477;SDS011;53678;39.642;22.430;2023-07-31T00:15:14;6.63;;;3.58;;
65477;SDS011;53678;39.642;22.430;2023-07-31T00:17:40;10.85;;;3.85;;
65477;SDS011;53678;39.642;22.430;2023-07-31T00:20:07;9.00;;;4.47;;
65477;SDS011;53678;39.642;22.430;2023-07-31T00:22:33;5.22;;;3.47;;
65477;SDS011;53678;39.642;22.430;2023-07-31T00:24:59;10.20;;;3.00;;
65477;SDS011;53678;39.642;22.430;2023-07-31T00:27:25;7.00;;;3.15;;
65477;SDS011;53678;39.642;22.430;2023-07-31T00:29:52;9.27;;;3.40;;
65477;SDS011;53678;39.642;22.430;2023-07-31T00:32:18;5.38;;;3.15;;
65477;SDS011;53678;39.642;22.430;2023-07-31T00:34:47;6.65;;;3.30;;
65477;SDS011;53678;39.642;22.430;2023-07-31T00:37:13;5.43;;;3.30;;
65477;SDS011;53678;39.642;22.430;2023-07-31T00:39:40;8.95;;;3.42;;
65477;SDS011;53678;39.642;22.430;2023-07-31T00:42:07;7.70;;;3.25;;
65477;SDS011;53678;39.642;22.430;2023-07-31T00:44:33;8.20;;;3.63;;
65477;SDS011;53678;39.642;22.430;2023-07-31T00:46:59;6.22;;;3.22;;
65477;SDS011;53678;39.642;22.430;2023-07-31T00:49:26;7.75;;;3.20;;
65477;SDS011;53678;39.642;22.430;2023-07-31T00:51:53;5.93;;;3.65;;
65477;SDS011;53678;39.642;22.430;2023-07-31T00:54:20;5.60;;;3.55;;
65477;SDS011;53678;39.642;22.430;2023-07-31T00:56:46;8.73;;;3.38;;
65477;SDS011;53678;39.642;22.430;2023-07-31T00:59:14;7.18;;;3.45;;
65477;SDS011;53678;39.642;22.430;2023-07-31T01:01:41;6.63;;;3.30;;
65477;SDS011;53678;39.642;22.430;2023-07-31T01:04:07;7.13;;;4.07;;
65477;SDS011;53678;39.642;22.430;2023-07-31T01:06:37;6.55;;;3.53;;
65477;SDS011;53678;39.642;22.430;2023-07-31T01:09:20;9.48;;;4.00;;
65477;SDS011;53678;39.642;22.430;2023-07-31T01:11:50;5.57;;;3.60;;
65477;SDS011;53678;39.642;22.430;2023-07-31T01:14:18;7.35;;;3.97;;
65477;SDS011;53678;39.642;22.430;2023-07-31T01:16:44;6.80;;;3.28;;
65477;SDS011;53678;39.642;22.430;2023-07-31T01:19:11;5.50;;;3.25;;
65477;SDS011;53678;39.642;22.430;2023-07-31T01:29:38;5.78;;;3.50;;
65477;SDS011;53678;39.642;22.430;2023-07-31T01:32:42;6.60;;;3.60;;
65477;SDS011;53678;39.642;22.430;2023-07-31T01:35:09;10.98;;;3.72;;
65477;SDS011;53678;39.642;22.430;2023-07-31T01:37:36;8.15;;;4.03;;
65477;SDS011;53678;39.642;22.430;2023-07-31T01:40:02;9.50;;;4.22;;
65477;SDS011;53678;39.642;22.430;2023-07-31T01:42:30;11.20;;;3.75;;
65477;SDS011;53678;39.642;22.430;2023-07-31T01:44:56;13.68;;;3.90;;
65477;SDS011;53678;39.642;22.430;2023-07-31T01:47:23;9.98;;;4.03;;
65477;SDS011;53678;39.642;22.430;2023-07-31T01:49:49;7.55;;;3.70;;
65477;SDS011;53678;39.642;22.430;2023-07-31T01:52:15;7.65;;;4.20;;
65477;SDS011;53678;39.642;22.430;2023-07-31T01:54:42;7.50;;;4.38;;
65477;SDS011;53678;39.642;22.430;2023-07-31T01:57:08;8.15;;;4.10;;
65477;SDS011;53678;39.642;22.430;2023-07-31T01:59:34;6.05;;;3.40;;
65477;SDS011;53678;39.642;22.430;2023-07-31T02:02:00;12.18;;;4.30;;
65477;SDS011;53678;39.642;22.430;2023-07-31T02:04:26;9.25;;;3.53;;
65477;SDS011;53678;39.642;22.430;2023-07-31T02:06:52;9.98;;;4.38;;
65477;SDS011;53678;39.642;22.430;2023-07-31T02:09:19;5.80;;;3.70;;
65477;SDS011;53678;39.642;22.430;2023-07-31T02:11:45;8.43;;;3.95;;
65477;SDS011;53678;39.642;22.430;2023-07-31T02:14:11;7.75;;;4.00;;
65477;SDS011;53678;39.642;22.430;2023-07-31T02:16:45;10.65;;;3.70;;
65477;SDS011;53678;39.642;22.430;2023-07-31T02:19:11;6.43;;;3.42;;
65477;SDS011;53678;39.642;22.430;2023-07-31T02:21:37;12.07;;;3.85;;
65477;SDS011;53678;39.642;22.430;2023-07-31T02:24:04;9.65;;;4.03;;
65477;SDS011;53678;39.642;22.430;2023-07-31T02:26:30;6.90;;;3.50;;
65477;SDS011;53678;39.642;22.430;2023-07-31T02:28:56;7.57;;;3.83;;
65477;SDS011;53678;39.642;22.430;2023-07-31T02:31:22;7.22;;;4.25;;
65477;SDS011;53678;39.642;22.430;2023-07-31T02:33:48;9.93;;;3.90;;
65477;SDS011;53678;39.642;22.430;2023-07-31T02:36:14;12.30;;;4.32;;
65477;SDS011;53678;39.642;22.430;2023-07-31T02:38:40;10.38;;;4.22;;
65477;SDS011;53678;39.642;22.430;2023-07-31T02:41:07;8.18;;;4.50;;
65477;SDS011;53678;39.642;22.430;2023-07-31T02:43:33;9.88;;;4.50;;
65477;SDS011;53678;39.642;22.430;2023-07-31T02:46:00;8.85;;;4.10;;
65477;SDS011;53678;39.642;22.430;2023-07-31T02:48:26;11.43;;;4.15;;
65477;SDS011;53678;39.642;22.430;2023-07-31T02:50:59;5.95;;;3.72;;
65477;SDS011;53678;39.642;22.430;2023-07-31T02:53:28;9.75;;;4.40;;
65477;SDS011;53678;39.642;22.430;2023-07-31T02:55:54;9.02;;;4.30;;
65477;SDS011;53678;39.642;22.430;2023-07-31T02:58:21;11.43;;;4.60;;
65477;SDS011;53678;39.642;22.430;2023-07-31T03:00:52;8.10;;;3.90;;
65477;SDS011;53678;39.642;22.430;2023-07-31T03:03:18;9.88;;;4.10;;
65477;SDS011;53678;39.642;22.430;2023-07-31T03:05:44;9.32;;;4.40;;
65477;SDS011;53678;39.642;22.430;2023-07-31T03:08:10;8.57;;;4.07;;
65477;SDS011;53678;39.642;22.430;2023-07-31T03:10:36;7.32;;;4.10;;
65477;SDS011;53678;39.642;22.430;2023-07-31T03:13:04;15.18;;;4.90;;
65477;SDS011;53678;39.642;22.430;2023-07-31T03:15:30;8.60;;;4.32;;
65477;SDS011;53678;39.642;22.430;2023-07-31T03:17:56;6.13;;;3.67;;
65477;SDS011;53678;39.642;22.430;2023-07-31T03:20:22;10.20;;;4.35;;
65477;SDS011;53678;39.642;22.430;2023-07-31T03:22:49;10.30;;;4.63;;
65477;SDS011;53678;39.642;22.430;2023-07-31T03:25:15;9.90;;;4.80;;
65477;SDS011;53678;39.642;22.430;2023-07-31T03:27:41;9.57;;;5.70;;
65477;SDS011;53678;39.642;22.430;2023-07-31T03:30:08;8.63;;;4.55;;
65477;SDS011;53678;39.642;22.430;2023-07-31T03:32:34;11.77;;;5.75;;
65477;SDS011;53678;39.642;22.430;2023-07-31T03:35:00;9.23;;;3.90;;
65477;SDS011;53678;39.642;22.430;2023-07-31T03:37:26;9.38;;;5.00;;
65477;SDS011;53678;39.642;22.430;2023-07-31T03:39:56;10.05;;;4.80;;
65477;SDS011;53678;39.642;22.430;2023-07-31T03:42:25;9.45;;;4.82;;
65477;SDS011;53678;39.642;22.430;2023-07-31T03:46:00;10.15;;;4.32;;
65477;SDS011;53678;39.642;22.430;2023-07-31T03:49:55;11.15;;;4.05;;
65477;SDS011;53678;39.642;22.430;2023-07-31T03:53:24;9.18;;;4.30;;
65477;SDS011;53678;39.642;22.430;2023-07-31T03:56:13;10.63;;;4.13;;
65477;SDS011;53678;39.642;22.430;2023-07-31T03:58:39;6.13;;;4.00;;
65477;SDS011;53678;39.642;22.430;2023-07-31T04:01:08;7.05;;;4.13;;
65477;SDS011;53678;39.642;22.430;2023-07-31T04:03:34;11.48;;;3.40;;
65477;SDS011;53678;39.642;22.430;2023-07-31T04:06:00;8.77;;;3.60;;
65477;SDS011;53678;39.642;22.430;2023-07-31T04:08:27;9.85;;;4.32;;
65477;SDS011;53678;39.642;22.430;2023-07-31T04:10:53;12.77;;;4.65;;
65477;SDS011;53678;39.642;22.430;2023-07-31T04:13:19;15.40;;;4.05;;
65477;SDS011;53678;39.642;22.430;2023-07-31T04:15:50;17.10;;;5.10;;
65477;SDS011;53678;39.642;22.430;2023-07-31T04:18:16;8.10;;;3.75;;
65477;SDS011;53678;39.642;22.430;2023-07-31T04:20:42;9.95;;;4.53;;
65477;SDS011;53678;39.642;22.430;2023-07-31T04:23:12;10.43;;;4.30;;
65477;SDS011;53678;39.642;22.430;2023-07-31T04:25:38;12.93;;;4.40;;
65477;SDS011;53678;39.642;22.430;2023-07-31T04:28:04;13.15;;;4.45;;
65477;SDS011;53678;39.642;22.430;2023-07-31T04:30:30;14.93;;;4.35;;
65477;SDS011;53678;39.642;22.430;2023-07-31T04:32:57;17.23;;;4.55;;
65477;SDS011;53678;39.642;22.430;2023-07-31T04:35:22;12.73;;;4.55;;
65477;SDS011;53678;39.642;22.430;2023-07-31T04:37:49;17.48;;;4.03;;
65477;SDS011;53678;39.642;22.430;2023-07-31T04:40:16;7.75;;;3.88;;
65477;SDS011;53678;39.642;22.430;2023-07-31T04:42:42;13.05;;;3.72;;
65477;SDS011;53678;39.642;22.430;2023-07-31T04:45:08;5.60;;;3.58;;
65477;SDS011;53678;39.642;22.430;2023-07-31T04:47:35;10.23;;;3.83;;
65477;SDS011;53678;39.642;22.430;2023-07-31T04:50:01;18.02;;;4.97;;
65477;SDS011;53678;39.642;22.430;2023-07-31T04:52:27;8.70;;;3.83;;
65477;SDS011;53678;39.642;22.430;2023-07-31T04:54:53;10.20;;;4.38;;
65477;SDS011;53678;39.642;22.430;2023-07-31T04:57:19;9.38;;;4.03;;
65477;SDS011;53678;39.642;22.430;2023-07-31T04:59:46;11.82;;;3.95;;
65477;SDS011;53678;39.642;22.430;2023-07-31T05:02:12;8.15;;;3.70;;
65477;SDS011;53678;39.642;22.430;2023-07-31T05:04:41;11.35;;;4.00;;
65477;SDS011;53678;39.642;22.430;2023-07-31T05:07:08;6.65;;;3.80;;
65477;SDS011;53678;39.642;22.430;2023-07-31T05:09:35;7.68;;;3.60;;
65477;SDS011;53678;39.642;22.430;2023-07-31T05:12:01;7.57;;;3.55;;
65477;SDS011;53678;39.642;22.430;2023-07-31T05:14:28;14.02;;;3.67;;
65477;SDS011;53678;39.642;22.430;2023-07-31T05:16:54;10.05;;;3.78;;
65477;SDS011;53678;39.642;22.430;2023-07-31T05:19:20;9.82;;;3.67;;
65477;SDS011;53678;39.642;22.430;2023-07-31T05:21:46;8.38;;;3.50;;
65477;SDS011;53678;39.642;22.430;2023-07-31T05:24:12;11.88;;;4.07;;
65477;SDS011;53678;39.642;22.430;2023-07-31T05:26:38;9.25;;;3.63;;
65477;SDS011;53678;39.642;22.430;2023-07-31T05:29:04;8.98;;;3.80;;
65477;SDS011;53678;39.642;22.430;2023-07-31T05:31:30;5.25;;;3.47;;
65477;SDS011;53678;39.642;22.430;2023-07-31T05:33:57;9.52;;;3.78;;
65477;SDS011;53678;39.642;22.430;2023-07-31T05:36:23;9.80;;;3.92;;
65477;SDS011;53678;39.642;22.430;2023-07-31T05:38:49;8.93;;;3.70;;
65477;SDS011;53678;39.642;22.430;2023-07-31T05:41:17;10.90;;;4.20;;
65477;SDS011;53678;39.642;22.430;2023-07-31T05:43:43;8.43;;;3.63;;
65477;SDS011;53678;39.642;22.430;2023-07-31T05:46:09;10.30;;;4.10;;
65477;SDS011;53678;39.642;22.430;2023-07-31T05:48:37;14.55;;;4.50;;
65477;SDS011;53678;39.642;22.430;2023-07-31T05:51:03;10.98;;;3.58;;
65477;SDS011;53678;39.642;22.430;2023-07-31T05:53:29;10.98;;;3.60;;
65477;SDS011;53678;39.642;22.430;2023-07-31T05:55:55;6.93;;;3.25;;
65477;SDS011;53678;39.642;22.430;2023-07-31T05:58:22;9.23;;;3.47;;
65477;SDS011;53678;39.642;22.430;2023-07-31T06:00:48;8.20;;;3.50;;
65477;SDS011;53678;39.642;22.430;2023-07-31T06:03:14;5.57;;;3.00;;
65477;SDS011;53678;39.642;22.430;2023-07-31T06:05:40;10.48;;;4.03;;
65477;SDS011;53678;39.642;22.430;2023-07-31T06:08:06;9.65;;;3.55;;
65477;SDS011;53678;39.642;22.430;2023-07-31T06:10:32;9.30;;;4.25;;
65477;SDS011;53678;39.642;22.430;2023-07-31T06:12:58;11.45;;;3.67;;
65477;SDS011;53678;39.642;22.430;2023-07-31T06:15:24;9.55;;;3.80;;
65477;SDS011;53678;39.642;22.430;2023-07-31T06:17:50;7.07;;;4.13;;
65477;SDS011;53678;39.642;22.430;2023-07-31T06:20:16;6.30;;;3.90;;
65477;SDS011;53678;39.642;22.430;2023-07-31T06:22:42;6.15;;;3.67;;
65477;SDS011;53678;39.642;22.430;2023-07-31T06:25:11;9.45;;;3.50;;
65477;SDS011;53678;39.642;22.430;2023-07-31T06:27:38;5.95;;;3.00;;
65477;SDS011;53678;39.642;22.430;2023-07-31T06:30:07;3.40;;;3.00;;
65477;SDS011;53678;39.642;22.430;2023-07-31T06:32:38;7.70;;;3.65;;
65477;SDS011;53678;39.642;22.430;2023-07-31T06:35:06;5.25;;;3.20;;
65477;SDS011;53678;39.642;22.430;2023-07-31T06:37:37;4.45;;;3.05;;
65477;SDS011;53678;39.642;22.430;2023-07-31T06:40:07;4.72;;;3.25;;
65477;SDS011;53678;39.642;22.430;2023-07-31T06:42:40;5.22;;;3.30;;
65477;SDS011;53678;39.642;22.430;2023-07-31T06:45:14;7.50;;;4.25;;
65477;SDS011;53678;39.642;22.430;2023-07-31T06:47:43;8.52;;;3.45;;
65477;SDS011;53678;39.642;22.430;2023-07-31T06:50:13;4.57;;;2.97;;
65477;SDS011;53678;39.642;22.430;2023-07-31T06:52:42;5.07;;;3.30;;
65477;SDS011;53678;39.642;22.430;2023-07-31T06:55:19;6.80;;;3.22;;
65477;SDS011;53678;39.642;22.430;2023-07-31T06:57:52;5.40;;;2.72;;
65477;SDS011;53678;39.642;22.430;2023-07-31T07:00:22;8.05;;;5.20;;
65477;SDS011;53678;39.642;22.430;2023-07-31T07:02:52;7.25;;;3.40;;
65477;SDS011;53678;39.642;22.430;2023-07-31T07:05:21;6.22;;;3.10;;
65477;SDS011;53678;39.642;22.430;2023-07-31T07:07:49;5.10;;;3.88;;
65477;SDS011;53678;39.642;22.430;2023-07-31T07:10:17;7.97;;;3.30;;
65477;SDS011;53678;39.642;22.430;2023-07-31T07:12:44;7.43;;;3.50;;
65477;SDS011;53678;39.642;22.430;2023-07-31T07:15:11;13.05;;;3.90;;
65477;SDS011;53678;39.642;22.430;2023-07-31T07:17:37;8.13;;;3.45;;
65477;SDS011;53678;39.642;22.430;2023-07-31T07:20:03;6.85;;;3.53;;
65477;SDS011;53678;39.642;22.430;2023-07-31T07:22:30;4.63;;;3.15;;
65477;SDS011;53678;39.642;22.430;2023-07-31T07:24:55;4.82;;;3.10;;
65477;SDS011;53678;39.642;22.430;2023-07-31T07:27:22;5.40;;;3.25;;
65477;SDS011;53678;39.642;22.430;2023-07-31T07:29:49;9.50;;;3.13;;
65477;SDS011;53678;39.642;22.430;2023-07-31T07:32:18;7.18;;;3.60;;
65477;SDS011;53678;39.642;22.430;2023-07-31T07:34:44;6.53;;;3.40;;
65477;SDS011;53678;39.642;22.430;2023-07-31T07:37:11;5.22;;;2.83;;
65477;SDS011;53678;39.642;22.430;2023-07-31T07:39:37;5.43;;;2.88;;
65477;SDS011;53678;39.642;22.430;2023-07-31T07:42:03;11.55;;;3.67;;
65477;SDS011;53678;39.642;22.430;2023-07-31T07:44:30;8.60;;;3.70;;
65477;SDS011;53678;39.642;22.430;2023-07-31T07:46:56;6.20;;;3.30;;
65477;SDS011;53678;39.642;22.430;2023-07-31T07:49:23;6.30;;;5.28;;
65477;SDS011;53678;39.642;22.430;2023-07-31T07:51:50;9.45;;;3.30;;
65477;SDS011;53678;39.642;22.430;2023-07-31T07:54:16;7.00;;;3.75;;
65477;SDS011;53678;39.642;22.430;2023-07-31T07:56:42;10.35;;;4.03;;
65477;SDS011;53678;39.642;22.430;2023-07-31T07:59:08;8.77;;;3.45;;
65477;SDS011;53678;39.642;22.430;2023-07-31T08:01:35;9.18;;;3.20;;
65477;SDS011;53678;39.642;22.430;2023-07-31T08:04:01;7.32;;;2.83;;
65477;SDS011;53678;39.642;22.430;2023-07-31T08:06:33;6.30;;;3.28;;
65477;SDS011;53678;39.642;22.430;2023-07-31T08:08:59;5.35;;;3.25;;
65477;SDS011;53678;39.642;22.430;2023-07-31T08:11:30;4.88;;;2.85;;
65477;SDS011;53678;39.642;22.430;2023-07-31T08:14:28;8.23;;;3.30;;
65477;SDS011;53678;39.642;22.430;2023-07-31T08:17:08;7.00;;;4.03;;
65477;SDS011;53678;39.642;22.430;2023-07-31T08:20:00;5.18;;;2.70;;
65477;SDS011;53678;39.642;22.430;2023-07-31T08:22:31;3.55;;;2.53;;
65477;SDS011;53678;39.642;22.430;2023-07-31T08:25:05;5.93;;;2.70;;
65477;SDS011;53678;39.642;22.430;2023-07-31T08:27:32;8.15;;;3.25;;
65477;SDS011;53678;39.642;22.430;2023-07-31T08:29:58;10.38;;;3.30;;
65477;SDS011;53678;39.642;22.430;2023-07-31T08:32:24;6.32;;;3.10;;
65477;SDS011;53678;39.642;22.430;2023-07-31T08:34:50;3.75;;;3.08;;
65477;SDS011;53678;39.642;22.430;2023-07-31T08:37:16;5.22;;;3.00;;
65477;SDS011;53678;39.642;22.430;2023-07-31T08:39:42;7.45;;;2.72;;
65477;SDS011;53678;39.642;22.430;2023-07-31T08:42:08;4.97;;;3.00;;
65477;SDS011;53678;39.642;22.430;2023-07-31T08:44:34;7.32;;;3.13;;
65477;SDS011;53678;39.642;22.430;2023-07-31T08:47:02;5.72;;;3.08;;
65477;SDS011;53678;39.642;22.430;2023-07-31T08:49:28;6.57;;;3.20;;
65477;SDS011;53678;39.642;22.430;2023-07-31T08:51:56;4.63;;;3.35;;
65477;SDS011;53678;39.642;22.430;2023-07-31T08:54:23;5.15;;;2.92;;
65477;SDS011;53678;39.642;22.430;2023-07-31T08:56:58;3.95;;;2.63;;
65477;SDS011;53678;39.642;22.430;2023-07-31T08:59:29;9.52;;;3.72;;
65477;SDS011;53678;39.642;22.430;2023-07-31T09:02:05;5.60;;;2.95;;
65477;SDS011;53678;39.642;22.430;2023-07-31T09:04:34;6.13;;;3.20;;
65477;SDS011;53678;39.642;22.430;2023-07-31T09:07:04;5.68;;;2.55;;
65477;SDS011;53678;39.642;22.430;2023-07-31T09:09:38;10.73;;;3.95;;
65477;SDS011;53678;39.642;22.430;2023-07-31T09:12:04;6.82;;;3.05;;
65477;SDS011;53678;39.642;22.430;2023-07-31T09:14:31;6.25;;;3.35;;
65477;SDS011;53678;39.642;22.430;2023-07-31T09:16:58;3.88;;;2.90;;
65477;SDS011;53678;39.642;22.430;2023-07-31T09:19:26;5.38;;;2.90;;
65477;SDS011;53678;39.642;22.430;2023-07-31T09:21:53;6.57;;;3.00;;
65477;SDS011;53678;39.642;22.430;2023-07-31T09:24:34;7.00;;;2.83;;
65477;SDS011;53678;39.642;22.430;2023-07-31T09:27:01;9.25;;;3.00;;
65477;SDS011;53678;39.642;22.430;2023-07-31T09:29:28;3.67;;;2.60;;
65477;SDS011;53678;39.642;22.430;2023-07-31T09:31:55;4.97;;;2.42;;
65477;SDS011;53678;39.642;22.430;2023-07-31T09:34:28;6.72;;;2.58;;
65477;SDS011;53678;39.642;22.430;2023-07-31T09:36:57;5.05;;;2.83;;
65477;SDS011;53678;39.642;22.430;2023-07-31T09:39:26;6.60;;;3.10;;
65477;SDS011;53678;39.642;22.430;2023-07-31T09:41:55;4.97;;;2.67;;
65477;SDS011;53678;39.642;22.430;2023-07-31T09:44:36;5.55;;;2.72;;
65477;SDS011;53678;39.642;22.430;2023-07-31T09:47:04;6.43;;;3.20;;
65477;SDS011;53678;39.642;22.430;2023-07-31T09:49:30;8.82;;;3.00;;
65477;SDS011;53678;39.642;22.430;2023-07-31T09:51:56;4.15;;;3.00;;
65477;SDS011;53678;39.642;22.430;2023-07-31T09:54:22;4.00;;;3.30;;
65477;SDS011;53678;39.642;22.430;2023-07-31T09:56:48;6.53;;;3.55;;
65477;SDS011;53678;39.642;22.430;2023-07-31T09:59:15;6.45;;;3.67;;
65477;SDS011;53678;39.642;22.430;2023-07-31T10:01:43;5.30;;;3.63;;
65477;SDS011;53678;39.642;22.430;2023-07-31T10:04:10;9.23;;;3.70;;
65477;SDS011;53678;39.642;22.430;2023-07-31T10:06:37;5.75;;;3.88;;
65477;SDS011;53678;39.642;22.430;2023-07-31T10:09:07;7.13;;;3.75;;
65477;SDS011;53678;39.642;22.430;2023-07-31T10:11:37;6.80;;;4.00;;
65477;SDS011;53678;39.642;22.430;2023-07-31T10:14:07;5.82;;;3.92;;
65477;SDS011;53678;39.642;22.430;2023-07-31T10:16:32;6.70;;;3.80;;
65477;SDS011;53678;39.642;22.430;2023-07-31T10:19:01;7.07;;;3.03;;
65477;SDS011;53678;39.642;22.430;2023-07-31T10:21:27;10.45;;;3.70;;
65477;SDS011;53678;39.642;22.430;2023-07-31T10:23:54;7.22;;;3.42;;
65477;SDS011;53678;39.642;22.430;2023-07-31T10:26:25;6.75;;;3.80;;
65477;SDS011;53678;39.642;22.430;2023-07-31T10:28:52;5.95;;;3.40;;
65477;SDS011;53678;39.642;22.430;2023-07-31T10:31:19;5.80;;;3.72;;
65477;SDS011;53678;39.642;22.430;2023-07-31T10:33:45;6.95;;;3.30;;
65477;SDS011;53678;39.642;22.430;2023-07-31T10:36:13;3.70;;;3.05;;
65477;SDS011;53678;39.642;22.430;2023-07-31T10:38:43;4.93;;;3.40;;
65477;SDS011;53678;39.642;22.430;2023-07-31T10:41:09;3.60;;;3.25;;
65477;SDS011;53678;39.642;22.430;2023-07-31T10:43:38;3.45;;;2.83;;
65477;SDS011;53678;39.642;22.430;2023-07-31T10:46:09;7.43;;;3.03;;
65477;SDS011;53678;39.642;22.430;2023-07-31T10:48:37;4.32;;;3.00;;
65477;SDS011;53678;39.642;22.430;2023-07-31T10:51:09;5.03;;;3.20;;
65477;SDS011;53678;39.642;22.430;2023-07-31T10:53:38;4.45;;;2.80;;
65477;SDS011;53678;39.642;22.430;2023-07-31T10:56:06;4.10;;;3.40;;
65477;SDS011;53678;39.642;22.430;2023-07-31T10:58:35;5.63;;;3.25;;
65477;SDS011;53678;39.642;22.430;2023-07-31T11:01:03;6.60;;;3.40;;
65477;SDS011;53678;39.642;22.430;2023-07-31T11:03:46;5.07;;;3.28;;
65477;SDS011;53678;39.642;22.430;2023-07-31T11:06:17;12.75;;;3.85;;
65477;SDS011;53678;39.642;22.430;2023-07-31T11:08:47;4.57;;;2.85;;
65477;SDS011;53678;39.642;22.430;2023-07-31T11:11:17;3.97;;;2.72;;
65477;SDS011;53678;39.642;22.430;2023-07-31T11:13:51;6.50;;;3.47;;
65477;SDS011;53678;39.642;22.430;2023-07-31T11:16:24;3.95;;;3.25;;
65477;SDS011;53678;39.642;22.430;2023-07-31T11:18:51;3.80;;;2.72;;
65477;SDS011;53678;39.642;22.430;2023-07-31T11:21:22;4.55;;;3.08;;
65477;SDS011;53678;39.642;22.430;2023-07-31T11:23:54;4.88;;;2.90;;
65477;SDS011;53678;39.642;22.430;2023-07-31T11:26:52;7.10;;;3.05;;
65477;SDS011;53678;39.642;22.430;2023-07-31T11:29:34;5.75;;;3.28;;
65477;SDS011;53678;39.642;22.430;2023-07-31T11:32:00;5.00;;;3.30;;
65477;SDS011;53678;39.642;22.430;2023-07-31T11:34:26;5.60;;;3.38;;
65477;SDS011;53678;39.642;22.430;2023-07-31T11:36:53;4.93;;;3.03;;
65477;SDS011;53678;39.642;22.430;2023-07-31T11:39:21;4.40;;;3.30;;
65477;SDS011;53678;39.642;22.430;2023-07-31T11:41:52;4.45;;;3.30;;
65477;SDS011;53678;39.642;22.430;2023-07-31T11:44:26;7.63;;;3.20;;
65477;SDS011;53678;39.642;22.430;2023-07-31T11:47:03;5.35;;;2.80;;
65477;SDS011;53678;39.642;22.430;2023-07-31T11:49:29;4.95;;;3.20;;
65477;SDS011;53678;39.642;22.430;2023-07-31T11:51:57;3.97;;;3.00;;
65477;SDS011;53678;39.642;22.430;2023-07-31T11:54:23;4.88;;;3.30;;
65477;SDS011;53678;39.642;22.430;2023-07-31T11:56:49;4.88;;;2.70;;
65477;SDS011;53678;39.642;22.430;2023-07-31T11:59:15;5.80;;;3.28;;
65477;SDS011;53678;39.642;22.430;2023-07-31T12:01:42;6.03;;;3.40;;
65477;SDS011;53678;39.642;22.430;2023-07-31T12:04:08;5.32;;;3.33;;
65477;SDS011;53678;39.642;22.430;2023-07-31T12:06:35;4.10;;;3.15;;
65477;SDS011;53678;39.642;22.430;2023-07-31T12:09:06;5.10;;;3.30;;
65477;SDS011;53678;39.642;22.430;2023-07-31T12:11:42;5.47;;;3.17;;
65477;SDS011;53678;39.642;22.430;2023-07-31T12:14:24;4.70;;;3.20;;
65477;SDS011;53678;39.642;22.430;2023-07-31T12:16:55;6.35;;;3.85;;
65477;SDS011;53678;39.642;22.430;2023-07-31T12:19:22;4.60;;;2.88;;
65477;SDS011;53678;39.642;22.430;2023-07-31T12:21:53;6.45;;;3.13;;
65477;SDS011;53678;39.642;22.430;2023-07-31T12:24:20;7.35;;;3.10;;
65477;SDS011;53678;39.642;22.430;2023-07-31T12:26:46;7.13;;;3.20;;
65477;SDS011;53678;39.642;22.430;2023-07-31T12:29:12;5.45;;;3.38;;
65477;SDS011;53678;39.642;22.430;2023-07-31T12:31:40;7.93;;;3.72;;
65477;SDS011;53678;39.642;22.430;2023-07-31T12:34:14;4.40;;;3.13;;
65477;SDS011;53678;39.642;22.430;2023-07-31T12:36:43;3.90;;;3.15;;
65477;SDS011;53678;39.642;22.430;2023-07-31T12:39:09;5.40;;;3.03;;
65477;SDS011;53678;39.642;22.430;2023-07-31T12:41:36;5.00;;;3.22;;
65477;SDS011;53678;39.642;22.430;2023-07-31T12:44:02;3.92;;;2.72;;
65477;SDS011;53678;39.642;22.430;2023-07-31T12:46:28;4.80;;;3.05;;
65477;SDS011;53678;39.642;22.430;2023-07-31T12:48:54;4.72;;;3.17;;
65477;SDS011;53678;39.642;22.430;2023-07-31T12:51:20;6.45;;;3.08;;
65477;SDS011;53678;39.642;22.430;2023-07-31T12:53:46;4.35;;;3.05;;
65477;SDS011;53678;39.642;22.430;2023-07-31T12:56:12;4.05;;;2.78;;
65477;SDS011;53678;39.642;22.430;2023-07-31T12:58:38;3.67;;;2.80;;
65477;SDS011;53678;39.642;22.430;2023-07-31T13:01:04;6.28;;;3.20;;
65477;SDS011;53678;39.642;22.430;2023-07-31T13:03:31;4.30;;;3.10;;
65477;SDS011;53678;39.642;22.430;2023-07-31T13:05:58;5.78;;;3.10;;
65477;SDS011;53678;39.642;22.430;2023-07-31T13:08:23;4.47;;;2.88;;
65477;SDS011;53678;39.642;22.430;2023-07-31T13:10:50;5.10;;;3.17;;
65477;SDS011;53678;39.642;22.430;2023-07-31T13:13:16;3.72;;;2.95;;
65477;SDS011;53678;39.642;22.430;2023-07-31T13:15:43;5.28;;;3.30;;
65477;SDS011;53678;39.642;22.430;2023-07-31T13:18:09;4.65;;;3.05;;
65477;SDS011;53678;39.642;22.430;2023-07-31T13:20:35;3.80;;;2.83;;
65477;SDS011;53678;39.642;22.430;2023-07-31T13:23:00;3.50;;;2.72;;
65477;SDS011;53678;39.642;22.430;2023-07-31T13:25:26;5.65;;;2.80;;
65477;SDS011;53678;39.642;22.430;2023-07-31T13:27:52;3.50;;;2.90;;
65477;SDS011;53678;39.642;22.430;2023-07-31T13:30:19;4.80;;;2.90;;
65477;SDS011;53678;39.642;22.430;2023-07-31T13:32:45;4.93;;;2.90;;
65477;SDS011;53678;39.642;22.430;2023-07-31T13:35:11;5.68;;;2.90;;
65477;SDS011;53678;39.642;22.430;2023-07-31T13:37:38;4.80;;;2.92;;
65477;SDS011;53678;39.642;22.430;2023-07-31T13:40:04;3.72;;;2.53;;
65477;SDS011;53678;39.642;22.430;2023-07-31T13:42:30;6.72;;;3.13;;
65477;SDS011;53678;39.642;22.430;2023-07-31T13:44:57;6.80;;;3.30;;
65477;SDS011;53678;39.642;22.430;2023-07-31T13:47:23;3.58;;;2.70;;
65477;SDS011;53678;39.642;22.430;2023-07-31T13:49:49;3.00;;;2.58;;
65477;SDS011;53678;39.642;22.430;2023-07-31T13:52:14;4.70;;;2.80;;
65477;SDS011;53678;39.642;22.430;2023-07-31T13:54:40;3.70;;;3.15;;
65477;SDS011;53678;39.642;22.430;2023-07-31T13:57:08;4.68;;;2.63;;
65477;SDS011;53678;39.642;22.430;2023-07-31T13:59:34;8.48;;;3.03;;
65477;SDS011;53678;39.642;22.430;2023-07-31T14:02:01;3.03;;;2.45;;
65477;SDS011;53678;39.642;22.430;2023-07-31T14:04:29;4.50;;;2.97;;
65477;SDS011;53678;39.642;22.430;2023-07-31T14:06:55;4.68;;;3.33;;
65477;SDS011;53678;39.642;22.430;2023-07-31T14:09:22;4.15;;;3.03;;
65477;SDS011;53678;39.642;22.430;2023-07-31T14:11:47;5.32;;;3.08;;
65477;SDS011;53678;39.642;22.430;2023-07-31T14:14:13;3.78;;;2.92;;
65477;SDS011;53678;39.642;22.430;2023-07-31T14:16:39;5.63;;;3.17;;
65477;SDS011;53678;39.642;22.430;2023-07-31T14:19:05;3.90;;;2.95;;
65477;SDS011;53678;39.642;22.430;2023-07-31T14:21:32;3.70;;;2.97;;
65477;SDS011;53678;39.642;22.430;2023-07-31T14:23:58;4.35;;;3.22;;
65477;SDS011;53678;39.642;22.430;2023-07-31T14:26:24;6.30;;;2.90;;
65477;SDS011;53678;39.642;22.430;2023-07-31T14:28:50;7.22;;;3.50;;
65477;SDS011;53678;39.642;22.430;2023-07-31T14:31:16;7.57;;;3.10;;
65477;SDS011;53678;39.642;22.430;2023-07-31T14:33:42;3.85;;;2.97;;
65477;SDS011;53678;39.642;22.430;2023-07-31T14:36:07;4.93;;;3.17;;
65477;SDS011;53678;39.642;22.430;2023-07-31T14:38:33;4.00;;;3.10;;
65477;SDS011;53678;39.642;22.430;2023-07-31T14:40:59;5.13;;;3.28;;
65477;SDS011;53678;39.642;22.430;2023-07-31T14:43:26;6.13;;;3.40;;
65477;SDS011;53678;39.642;22.430;2023-07-31T14:45:51;6.45;;;3.33;;
65477;SDS011;53678;39.642;22.430;2023-07-31T14:48:18;5.28;;;3.28;;